Terminal Aerodrome Forecast
Issued by NWS

Current Version | Previous Version | Text Only | Print | Product List | Glossary On
Versions: 1 2 3 4 5 6 7 8 9 10 11 12 13 14 15 16 17 18 19 20 21 22 23 24 25 26 27 28 29 30 31 32 33 34 35 36 37 38 39 40 41 42 43 44 45 46 47 48 49 50
000
FTAK31 PAFA 021435 AAA
TAFASC
TAF AMD
PASC 021435Z 0215/0312 13005KT P6SM SCT025 BKN040 OVC160
     FM022000 16005KT P6SM VCSH BKN025
     FM022200 21007KT 5SM -RA OVC020
     FM030100 22008KT 2SM -RA BR OVC015=

USA.gov is the U.S. government's official web portal to all federal, state and local government web resources and services.